Hillsboro, OR (97124)

3:22 PM PDT on July 23, 2016 (GMT -0700)
Portland-Hillsboro | | Change Station

Elev 203 ft 45.54 °N, 122.95 °W | Updated 29 minutes ago

Scattered Clouds
Scattered Clouds
73 °F
Feels Like 73 °F
N
7
Wind Variable Wind from NNW

Today
High -- | Low -- °F
--% Chance of Precip.
Yesterday
High -- | Low -- °F
Precip. -- in
Pressure 30.22 in
Visibility 10.0 miles
Clouds Scattered Clouds 4300 ft
Dew Point 52 °F
Humidity 48%
Rainfall 0.00 in
Snow Depth Not available.
5:46 AM 8:49 PM
Waning Gibbous, 82% visible
METAR KHIO 232153Z COR 33006KT 10SM SCT043 23/11 A3022 RMK AO2 SLP232 T02280111
Pressure 30.22 in
Visibility 10.0 miles
Clouds Scattered Clouds 4300 ft
Dew Point 52 °F
Humidity 48%
Rainfall 0.00 in
Snow Depth Not available.
5:46 AM 8:49 PM
Waning Gibbous, 82% visible
METAR KHIO 232153Z COR 33006KT 10SM SCT043 23/11 A3022 RMK AO2 SLP232 T02280111

10-Day Weather Forecast

Almanac

Astronomy

Jul. 23, 2016 Rise Set
Actual Time
Civil Twilight
Nautical Twilight
Astronomical Twilight
Moon
Length of Visible Light
Length of Day
Tomorrow will be .
, % of the Moon is Illuminated

Today's Extremes

State Highs State Lows

Community

WunderPhotos

Upload Photos

1,926,948 photos uploaded!

WunderBlog® & News

Nearby

Air Quality

  Air Quality AQ Index Pollutant
Not available.

Snow Depth

Station Depth Elevation

Earthquake Activity

City Distance Mag. Time & Date
Minimum magnitude displayed is 2.5.

Coastal Water Temperatures

Place Temperature

Stations

Nearby Weather Stations

Station Location Temp. Windchill Dew Point Humidity Wind Precip. Elev Updated Type
                   

Watches & Warnings

There are currently no watches in effect.